Time;durP1;ratioP1;P1;durP2;ratioP2;P2;SDS_P1;SDS_P2;PMS_P1;PMS_P2;Temp;Humidity;BMP_temperature;BMP_pressure;BME280_temperature;BME280_humidity;BME280_pressure;Samples;Min_cycle;Max_cycle;Signal;HPM_P1;HPM_P2
2021/12/26 00:00:10;;;;;;;17.40;10.60;;;;;;;;;;105608;1294;65205;-26
2021/12/26 00:02:58;;;;;;;16.30;10.10;;;;;;;;;;105786;1291;64879;-23
2021/12/26 00:05:26;;;;;;;18.70;11.00;;;;;;;;;;105858;1294;64731;-26
2021/12/26 00:07:54;;;;;;;18.50;9.80;;;;;;;;;;105844;1291;64864;-26
2021/12/26 00:10:21;;;;;;;18.30;10.60;;;;;;;;;;105837;1294;64782;-26
2021/12/26 00:12:48;;;;;;;17.30;10.80;;;;;;;;;;105866;1294;64847;-26
2021/12/26 00:15:16;;;;;;;15.60;9.50;;;;;;;;;;105850;1294;64898;-27
2021/12/26 00:17:43;;;;;;;16.60;10.30;;;;;;;;;;105621;1294;64843;-26
2021/12/26 00:20:11;;;;;;;16.30;10.40;;;;;;;;;;105612;1293;64815;-30
2021/12/26 00:22:38;;;;;;;17.30;10.10;;;;;;;;;;105858;1292;64838;-27
2021/12/26 00:25:07;;;;;;;16.80;10.20;;;;;;;;;;105822;1290;64757;-26
2021/12/26 00:27:35;;;;;;;15.70;9.90;;;;;;;;;;105864;1294;64824;-25
2021/12/26 00:30:07;;;;;;;16.80;9.50;;;;;;;;;;105795;1294;64851;-26
2021/12/26 00:32:34;;;;;;;16.70;9.90;;;;;;;;;;105862;1294;64856;-26
2021/12/26 00:35:02;;;;;;;16.60;10.00;;;;;;;;;;105830;1294;64713;-26
2021/12/26 00:37:29;;;;;;;17.40;10.50;;;;;;;;;;105802;1294;64796;-28
2021/12/26 00:39:56;;;;;;;17.80;10.90;;;;;;;;;;105639;1292;64873;-26
2021/12/26 00:42:23;;;;;;;14.50;9.80;;;;;;;;;;105825;1294;64889;-26
2021/12/26 00:44:50;;;;;;;16.10;9.90;;;;;;;;;;105628;1293;64903;-21
2021/12/26 00:47:17;;;;;;;16.20;10.10;;;;;;;;;;105637;1290;65041;-23
2021/12/26 00:49:44;;;;;;;16.40;10.50;;;;;;;;;;105508;1295;64904;-23
2021/12/26 00:52:11;;;;;;;16.60;9.90;;;;;;;;;;105640;1294;64865;-23
2021/12/26 00:54:38;;;;;;;16.00;9.60;;;;;;;;;;105849;1290;64795;-27
2021/12/26 00:57:05;;;;;;;15.50;9.80;;;;;;;;;;105800;1294;64803;-26
2021/12/26 00:59:32;;;;;;;15.90;9.70;;;;;;;;;;105840;1294;64820;-24
2021/12/26 01:01:59;;;;;;;15.30;9.80;;;;;;;;;;105667;1294;64880;-23
2021/12/26 01:04:26;;;;;;;15.50;10.20;;;;;;;;;;105830;1295;64738;-26
2021/12/26 01:06:53;;;;;;;16.40;10.10;;;;;;;;;;105627;1292;64925;-25
2021/12/26 01:09:25;;;;;;;16.40;10.30;;;;;;;;;;105657;1292;64976;-22
2021/12/26 01:11:56;;;;;;;17.00;9.20;;;;;;;;;;105814;1291;65100;-22
2021/12/26 01:14:28;;;;;;;15.30;9.90;;;;;;;;;;105841;1291;64821;-30
2021/12/26 01:17:04;;;;;;;15.40;10.40;;;;;;;;;;105815;1294;64929;-38
2021/12/26 01:19:40;;;;;;;15.70;9.70;;;;;;;;;;105459;1294;329601;-26
2021/12/26 01:22:08;;;;;;;15.50;9.80;;;;;;;;;;105834;1290;64803;-27
2021/12/26 01:24:35;;;;;;;14.50;9.60;;;;;;;;;;105664;1292;64914;-26
2021/12/26 01:27:03;;;;;;;16.20;9.50;;;;;;;;;;105798;1291;64863;-25
2021/12/26 01:29:30;;;;;;;14.50;9.30;;;;;;;;;;105822;1294;64855;-25
2021/12/26 01:31:57;;;;;;;17.10;10.00;;;;;;;;;;105828;1291;64740;-26
2021/12/26 01:34:24;;;;;;;16.90;9.70;;;;;;;;;;105635;1294;64887;-26
2021/12/26 01:36:51;;;;;;;15.10;9.80;;;;;;;;;;105615;1296;64741;-26
2021/12/26 01:39:18;;;;;;;15.60;9.90;;;;;;;;;;105803;1291;64857;-23
2021/12/26 01:41:45;;;;;;;15.60;9.40;;;;;;;;;;105844;1291;64803;-31
2021/12/26 01:44:13;;;;;;;15.40;9.90;;;;;;;;;;105803;1294;64865;-22
2021/12/26 01:46:40;;;;;;;16.10;10.30;;;;;;;;;;105836;1292;64830;-23
2021/12/26 01:49:09;;;;;;;15.20;9.40;;;;;;;;;;105804;1294;64723;-32
2021/12/26 01:51:36;;;;;;;16.50;9.60;;;;;;;;;;105852;1291;64878;-26
2021/12/26 01:54:08;;;;;;;15.60;9.80;;;;;;;;;;105600;1294;65498;-24
2021/12/26 01:56:37;;;;;;;15.30;9.60;;;;;;;;;;105790;1294;64751;-26
2021/12/26 01:59:05;;;;;;;15.60;9.10;;;;;;;;;;105708;1295;64757;-24
2021/12/26 02:01:32;;;;;;;14.40;9.10;;;;;;;;;;105826;1291;64953;-25
2021/12/26 02:03:59;;;;;;;15.80;9.80;;;;;;;;;;105605;1292;64815;-28
2021/12/26 02:06:27;;;;;;;15.90;9.60;;;;;;;;;;105780;1294;65908;-35
2021/12/26 02:08:54;;;;;;;15.30;9.30;;;;;;;;;;105576;1293;65464;-26
2021/12/26 02:11:21;;;;;;;15.30;9.20;;;;;;;;;;105801;1291;64855;-24
2021/12/26 02:13:48;;;;;;;16.40;10.40;;;;;;;;;;105639;1296;66470;-23
2021/12/26 02:16:15;;;;;;;16.60;10.00;;;;;;;;;;105605;1292;64888;-26
2021/12/26 02:18:42;;;;;;;16.70;10.30;;;;;;;;;;105622;1294;64903;-26
2021/12/26 02:21:23;;;;;;;15.60;9.30;;;;;;;;;;105659;1291;64853;-26
2021/12/26 02:24:06;;;;;;;16.90;9.70;;;;;;;;;;105800;1290;64849;-26
2021/12/26 02:29:19;;;;;;;16.00;10.00;;;;;;;;;;105818;1294;64893;-25
2021/12/26 02:31:46;;;;;;;16.40;9.90;;;;;;;;;;105466;1294;64881;-26
2021/12/26 02:34:13;;;;;;;17.10;9.50;;;;;;;;;;105827;1294;64713;-25
2021/12/26 02:36:40;;;;;;;16.40;10.10;;;;;;;;;;105401;1296;64851;-26
2021/12/26 02:39:07;;;;;;;14.80;9.70;;;;;;;;;;105300;1298;64834;-25
2021/12/26 02:41:34;;;;;;;16.00;10.10;;;;;;;;;;105767;1290;64844;-25
2021/12/26 02:44:02;;;;;;;14.40;9.20;;;;;;;;;;105805;1292;64862;-26
2021/12/26 02:46:29;;;;;;;16.20;9.60;;;;;;;;;;105807;1292;64868;-22
2021/12/26 02:48:56;;;;;;;16.50;9.70;;;;;;;;;;105711;1295;64961;-22
2021/12/26 02:51:23;;;;;;;14.20;9.10;;;;;;;;;;105817;1291;64831;-22
2021/12/26 02:53:51;;;;;;;15.00;9.20;;;;;;;;;;105784;1294;64791;-26
2021/12/26 02:56:18;;;;;;;15.90;10.00;;;;;;;;;;105631;1291;64790;-30
2021/12/26 02:58:45;;;;;;;15.30;9.60;;;;;;;;;;105798;1290;64852;-26
2021/12/26 03:01:14;;;;;;;14.60;9.40;;;;;;;;;;105821;1294;64857;-26
2021/12/26 03:03:41;;;;;;;14.40;9.50;;;;;;;;;;105798;1294;64711;-26
2021/12/26 03:06:18;;;;;;;18.10;10.10;;;;;;;;;;105803;1294;64711;-22
2021/12/26 03:08:47;;;;;;;15.10;9.60;;;;;;;;;;105610;1292;64779;-22
2021/12/26 03:11:14;;;;;;;15.10;9.50;;;;;;;;;;105813;1294;64790;-27
2021/12/26 03:13:41;;;;;;;16.70;9.40;;;;;;;;;;105599;1296;64737;-26
2021/12/26 03:16:08;;;;;;;16.80;9.40;;;;;;;;;;105783;1293;64873;-23
2021/12/26 03:18:36;;;;;;;15.30;9.90;;;;;;;;;;105586;1295;64879;-24
2021/12/26 03:21:03;;;;;;;15.20;9.40;;;;;;;;;;105766;1291;64744;-23
2021/12/26 03:23:30;;;;;;;15.70;9.30;;;;;;;;;;105782;1294;64863;-22
2021/12/26 03:25:59;;;;;;;15.90;9.90;;;;;;;;;;105610;1296;64825;-25
2021/12/26 03:28:26;;;;;;;15.90;9.40;;;;;;;;;;105841;1294;64748;-25
2021/12/26 03:30:53;;;;;;;14.70;8.80;;;;;;;;;;105626;1294;64914;-21
2021/12/26 03:33:21;;;;;;;16.10;9.70;;;;;;;;;;105785;1294;64746;-21
2021/12/26 03:35:48;;;;;;;13.70;9.30;;;;;;;;;;105780;1295;64745;-26
2021/12/26 03:38:16;;;;;;;17.10;10.00;;;;;;;;;;105819;1296;64956;-25
2021/12/26 03:40:45;;;;;;;14.30;9.30;;;;;;;;;;105853;1295;64824;-23
2021/12/26 03:43:12;;;;;;;13.30;8.90;;;;;;;;;;105799;1292;64844;-22
2021/12/26 03:45:43;;;;;;;15.30;9.10;;;;;;;;;;105594;1297;65548;-22
2021/12/26 03:48:12;;;;;;;15.40;9.90;;;;;;;;;;105802;1295;64896;-23
2021/12/26 03:50:41;;;;;;;14.70;9.00;;;;;;;;;;105828;1291;64847;-22
2021/12/26 03:53:08;;;;;;;15.30;9.40;;;;;;;;;;105864;1292;64834;-22
2021/12/26 03:55:36;;;;;;;14.10;8.80;;;;;;;;;;105830;1295;64810;-26
2021/12/26 03:58:04;;;;;;;15.10;8.90;;;;;;;;;;105816;1293;64820;-26
2021/12/26 04:00:31;;;;;;;15.40;9.50;;;;;;;;;;105742;1296;64862;-26
2021/12/26 04:02:58;;;;;;;15.30;9.30;;;;;;;;;;105617;1296;64914;-30
2021/12/26 04:05:25;;;;;;;14.60;9.20;;;;;;;;;;105825;1295;64984;-24
2021/12/26 04:07:52;;;;;;;15.20;8.90;;;;;;;;;;105646;1298;64750;-23
2021/12/26 04:10:20;;;;;;;15.00;9.20;;;;;;;;;;105797;1295;64751;-22
2021/12/26 04:12:49;;;;;;;13.50;8.70;;;;;;;;;;105843;1296;64780;-22
2021/12/26 04:15:20;;;;;;;15.30;9.60;;;;;;;;;;105805;1292;64890;-22
2021/12/26 04:17:48;;;;;;;14.10;9.20;;;;;;;;;;105808;1295;64837;-22
2021/12/26 04:20:15;;;;;;;14.30;8.80;;;;;;;;;;105782;1292;64858;-21
2021/12/26 04:22:42;;;;;;;15.60;8.90;;;;;;;;;;105684;1295;64752;-22
2021/12/26 04:25:09;;;;;;;15.80;9.50;;;;;;;;;;105668;1292;65093;-26
2021/12/26 04:27:36;;;;;;;14.40;8.80;;;;;;;;;;105806;1294;64770;-26
2021/12/26 04:30:07;;;;;;;16.30;9.20;;;;;;;;;;105785;1295;64776;-27
2021/12/26 04:32:34;;;;;;;14.30;8.40;;;;;;;;;;105798;1295;65455;-27
2021/12/26 04:35:02;;;;;;;14.40;8.80;;;;;;;;;;105796;1290;64887;-26
2021/12/26 04:37:29;;;;;;;16.10;9.10;;;;;;;;;;105806;1295;64736;-26
2021/12/26 04:39:56;;;;;;;15.30;9.60;;;;;;;;;;105807;1295;64814;-21
2021/12/26 04:42:23;;;;;;;13.70;8.80;;;;;;;;;;105595;1296;64891;-23
2021/12/26 04:44:52;;;;;;;13.70;8.30;;;;;;;;;;105612;1294;65498;-22
2021/12/26 04:47:19;;;;;;;16.10;8.90;;;;;;;;;;105815;1293;64734;-29
2021/12/26 04:49:46;;;;;;;14.30;9.20;;;;;;;;;;105795;1294;65920;-32
2021/12/26 04:52:13;;;;;;;13.80;8.60;;;;;;;;;;105813;1295;64871;-23
2021/12/26 04:54:41;;;;;;;14.30;8.50;;;;;;;;;;105782;1295;64852;-26
2021/12/26 04:57:08;;;;;;;15.60;9.00;;;;;;;;;;105798;1294;64754;-27
2021/12/26 04:59:35;;;;;;;14.50;8.90;;;;;;;;;;105663;1292;64851;-27
2021/12/26 05:02:02;;;;;;;14.90;9.00;;;;;;;;;;105797;1293;64774;-26
2021/12/26 05:04:29;;;;;;;14.90;9.50;;;;;;;;;;105813;1293;64724;-32
2021/12/26 05:06:56;;;;;;;15.10;9.00;;;;;;;;;;105720;1296;64959;-26
2021/12/26 05:09:23;;;;;;;15.40;9.30;;;;;;;;;;105851;1294;64915;-23
2021/12/26 05:11:50;;;;;;;14.10;8.60;;;;;;;;;;105581;1296;64962;-22
2021/12/26 05:14:17;;;;;;;15.40;9.20;;;;;;;;;;105579;1293;64721;-37
2021/12/26 05:16:44;;;;;;;14.20;9.80;;;;;;;;;;105792;1294;64809;-28
2021/12/26 05:19:11;;;;;;;15.10;9.90;;;;;;;;;;105623;1292;64851;-22
2021/12/26 05:21:37;;;;;;;14.30;9.30;;;;;;;;;;105782;1295;64709;-22
2021/12/26 05:24:04;;;;;;;14.00;8.50;;;;;;;;;;105797;1291;64973;-23
2021/12/26 05:26:31;;;;;;;14.40;8.80;;;;;;;;;;105793;1293;64952;-32
2021/12/26 05:28:58;;;;;;;14.80;9.30;;;;;;;;;;105428;1296;64969;-23
2021/12/26 05:31:25;;;;;;;15.00;8.70;;;;;;;;;;105781;1294;65231;-23
2021/12/26 05:33:52;;;;;;;12.60;8.40;;;;;;;;;;105610;1292;64914;-38
2021/12/26 05:36:19;;;;;;;14.10;9.50;;;;;;;;;;105803;1291;64784;-29
2021/12/26 05:38:46;;;;;;;15.70;9.00;;;;;;;;;;105620;1294;64856;-23
2021/12/26 05:41:13;;;;;;;14.80;9.10;;;;;;;;;;105851;1295;64757;-26
2021/12/26 05:43:41;;;;;;;15.10;9.10;;;;;;;;;;105608;1296;65447;-26
2021/12/26 05:46:08;;;;;;;14.00;8.80;;;;;;;;;;105807;1294;64720;-24
2021/12/26 05:48:35;;;;;;;13.10;8.10;;;;;;;;;;105643;1293;64871;-33
2021/12/26 05:51:02;;;;;;;14.80;8.80;;;;;;;;;;105592;1292;64918;-22
2021/12/26 05:53:28;;;;;;;15.50;9.00;;;;;;;;;;105760;1294;64868;-22
2021/12/26 05:55:56;;;;;;;14.40;9.20;;;;;;;;;;105815;1292;64775;-26
2021/12/26 05:58:22;;;;;;;14.40;9.10;;;;;;;;;;105826;1290;64909;-27
2021/12/26 06:00:49;;;;;;;15.30;9.60;;;;;;;;;;105785;1294;64861;-25
2021/12/26 06:03:17;;;;;;;14.60;9.20;;;;;;;;;;105606;1293;64772;-25
2021/12/26 06:05:43;;;;;;;15.30;9.30;;;;;;;;;;105624;1291;64855;-23
2021/12/26 06:08:10;;;;;;;13.60;8.70;;;;;;;;;;105787;1294;64918;-23
2021/12/26 06:10:37;;;;;;;14.90;9.50;;;;;;;;;;105799;1291;65401;-27
2021/12/26 06:13:04;;;;;;;16.10;9.50;;;;;;;;;;105758;1294;64845;-30
2021/12/26 06:15:31;;;;;;;15.00;9.30;;;;;;;;;;105622;1296;64853;-22
2021/12/26 06:17:58;;;;;;;13.60;9.60;;;;;;;;;;105804;1294;64841;-22
2021/12/26 06:20:24;;;;;;;13.60;9.00;;;;;;;;;;105635;1296;64878;-26
2021/12/26 06:22:51;;;;;;;15.90;9.20;;;;;;;;;;105568;1296;65674;-26
2021/12/26 06:25:18;;;;;;;14.90;10.00;;;;;;;;;;105838;1291;64924;-22
2021/12/26 06:27:45;;;;;;;13.80;9.50;;;;;;;;;;105801;1294;64893;-23
2021/12/26 06:30:13;;;;;;;14.20;9.30;;;;;;;;;;105790;1290;64866;-25
2021/12/26 06:32:40;;;;;;;16.90;9.30;;;;;;;;;;105734;1290;64783;-26
2021/12/26 06:35:08;;;;;;;13.80;9.60;;;;;;;;;;105799;1291;64979;-22
2021/12/26 06:37:36;;;;;;;15.20;9.50;;;;;;;;;;105714;1293;64849;-22
2021/12/26 06:40:04;;;;;;;17.10;9.70;;;;;;;;;;105828;1290;64783;-22
2021/12/26 06:42:32;;;;;;;13.40;9.90;;;;;;;;;;105833;1287;65902;-23
2021/12/26 06:45:00;;;;;;;16.50;10.40;;;;;;;;;;105719;1294;66251;-26
2021/12/26 06:47:27;;;;;;;15.40;9.30;;;;;;;;;;105813;1293;64840;-28
2021/12/26 06:49:55;;;;;;;15.90;10.30;;;;;;;;;;105423;1296;64857;-23
2021/12/26 06:52:22;;;;;;;15.50;10.10;;;;;;;;;;105600;1292;65481;-22
2021/12/26 06:54:49;;;;;;;16.70;9.80;;;;;;;;;;105803;1290;64851;-26
2021/12/26 06:57:16;;;;;;;16.80;10.30;;;;;;;;;;105624;1295;64729;-26
2021/12/26 06:59:43;;;;;;;17.30;10.40;;;;;;;;;;105604;1293;64779;-25
2021/12/26 07:02:10;;;;;;;15.40;10.40;;;;;;;;;;105591;1293;64820;-26
2021/12/26 07:04:37;;;;;;;16.20;10.20;;;;;;;;;;105823;1291;64714;-22
2021/12/26 07:07:05;;;;;;;16.70;10.40;;;;;;;;;;105824;1290;64857;-23
2021/12/26 07:09:32;;;;;;;14.70;10.30;;;;;;;;;;105573;1294;64863;-22
2021/12/26 07:11:59;;;;;;;15.90;10.10;;;;;;;;;;105371;1297;64961;-22
2021/12/26 07:14:26;;;;;;;16.90;10.60;;;;;;;;;;105809;1294;64923;-26
2021/12/26 07:16:54;;;;;;;15.50;10.10;;;;;;;;;;105394;1296;64991;-26
2021/12/26 07:19:21;;;;;;;17.00;10.20;;;;;;;;;;105646;1290;64848;-23
2021/12/26 07:21:49;;;;;;;15.30;10.30;;;;;;;;;;105603;1293;64920;-23
2021/12/26 07:24:16;;;;;;;17.50;10.70;;;;;;;;;;105636;1292;64851;-25
2021/12/26 07:26:43;;;;;;;16.40;10.90;;;;;;;;;;105825;1291;64852;-26
2021/12/26 07:29:10;;;;;;;17.10;10.10;;;;;;;;;;105627;1293;64850;-22
2021/12/26 07:31:37;;;;;;;17.10;10.80;;;;;;;;;;105751;1290;64819;-22
2021/12/26 07:34:04;;;;;;;18.00;9.90;;;;;;;;;;105834;1294;64808;-22
2021/12/26 07:36:32;;;;;;;15.10;9.70;;;;;;;;;;105685;1293;64729;-22
2021/12/26 07:39:00;;;;;;;14.70;10.00;;;;;;;;;;105868;1291;64912;-23
2021/12/26 07:41:27;;;;;;;14.80;9.70;;;;;;;;;;105797;1294;64778;-22
2021/12/26 07:43:55;;;;;;;15.80;10.00;;;;;;;;;;105646;1294;64691;-23
2021/12/26 07:46:22;;;;;;;16.20;10.50;;;;;;;;;;105810;1290;64785;-26
2021/12/26 07:48:49;;;;;;;15.70;10.20;;;;;;;;;;105794;1294;66257;-27
2021/12/26 07:51:18;;;;;;;15.40;10.20;;;;;;;;;;105809;1291;65120;-23
2021/12/26 07:53:46;;;;;;;16.70;10.50;;;;;;;;;;105811;1290;64771;-22
2021/12/26 07:56:14;;;;;;;16.10;10.00;;;;;;;;;;105833;1290;64909;-25
2021/12/26 07:58:41;;;;;;;16.70;10.00;;;;;;;;;;105826;1290;64825;-26
2021/12/26 08:01:08;;;;;;;13.90;9.70;;;;;;;;;;105831;1291;64774;-26
2021/12/26 08:03:35;;;;;;;17.60;10.60;;;;;;;;;;105808;1293;64821;-26
2021/12/26 08:06:03;;;;;;;16.60;10.50;;;;;;;;;;105843;1290;64779;-26
2021/12/26 08:08:30;;;;;;;14.60;9.20;;;;;;;;;;105809;1294;64797;-26
2021/12/26 08:10:57;;;;;;;15.20;9.30;;;;;;;;;;105828;1289;64808;-23
2021/12/26 08:13:24;;;;;;;15.50;9.30;;;;;;;;;;105802;1291;64912;-22
2021/12/26 08:15:51;;;;;;;15.80;10.00;;;;;;;;;;105843;1290;64858;-22
2021/12/26 08:18:18;;;;;;;14.50;9.40;;;;;;;;;;105813;1290;64790;-23
2021/12/26 08:20:45;;;;;;;15.00;9.00;;;;;;;;;;105818;1290;64752;-26
2021/12/26 08:23:12;;;;;;;15.50;9.70;;;;;;;;;;105616;1293;64876;-22
2021/12/26 08:25:38;;;;;;;15.90;9.20;;;;;;;;;;105855;1290;64843;-23
2021/12/26 08:28:05;;;;;;;16.40;9.10;;;;;;;;;;105791;1292;64734;-24
2021/12/26 08:30:34;;;;;;;12.90;9.30;;;;;;;;;;105823;1294;64708;-29
2021/12/26 08:33:05;;;;;;;16.40;9.90;;;;;;;;;;105618;1292;64785;-26
2021/12/26 08:35:33;;;;;;;14.30;9.30;;;;;;;;;;105843;1290;64855;-26
2021/12/26 08:38:01;;;;;;;14.40;9.50;;;;;;;;;;105791;1290;64820;-25
2021/12/26 08:40:27;;;;;;;14.40;9.50;;;;;;;;;;105834;1291;64841;-22
2021/12/26 08:42:54;;;;;;;15.40;10.00;;;;;;;;;;105805;1294;64805;-23
2021/12/26 08:45:21;;;;;;;14.40;9.70;;;;;;;;;;105814;1290;64742;-23
2021/12/26 08:47:48;;;;;;;15.80;10.30;;;;;;;;;;105601;1297;64667;-21
2021/12/26 08:50:15;;;;;;;15.80;10.50;;;;;;;;;;105859;1290;65948;-27
2021/12/26 08:52:43;;;;;;;16.40;9.80;;;;;;;;;;105840;1290;66362;-26
2021/12/26 08:55:10;;;;;;;14.00;9.40;;;;;;;;;;105810;1292;64885;-31
2021/12/26 08:57:37;;;;;;;15.10;9.90;;;;;;;;;;105828;1290;64811;-26
2021/12/26 09:00:05;;;;;;;14.80;9.10;;;;;;;;;;105597;1293;64889;-26
2021/12/26 09:02:32;;;;;;;15.50;10.70;;;;;;;;;;105853;1291;64889;-27
2021/12/26 09:04:59;;;;;;;16.10;10.30;;;;;;;;;;105796;1290;64782;-22
2021/12/26 09:07:28;;;;;;;17.40;10.40;;;;;;;;;;105816;1290;64691;-23
2021/12/26 09:09:56;;;;;;;15.40;10.70;;;;;;;;;;105807;1290;64868;-27
2021/12/26 09:12:23;;;;;;;15.30;10.80;;;;;;;;;;105857;1290;64867;-31
2021/12/26 09:14:51;;;;;;;17.30;11.40;;;;;;;;;;105865;1290;65150;-22
2021/12/26 09:17:18;;;;;;;16.30;10.90;;;;;;;;;;105855;1290;64731;-22
2021/12/26 09:19:44;;;;;;;16.20;10.20;;;;;;;;;;105506;1290;442065;-26
2021/12/26 09:22:15;;;;;;;16.90;10.70;;;;;;;;;;105833;1293;64943;-28
2021/12/26 09:24:42;;;;;;;15.90;11.60;;;;;;;;;;105872;1291;64819;-22
2021/12/26 09:27:10;;;;;;;17.60;11.40;;;;;;;;;;105596;1292;64781;-22
2021/12/26 09:29:37;;;;;;;15.70;11.00;;;;;;;;;;105347;1296;64846;-26
2021/12/26 09:32:04;;;;;;;18.00;11.40;;;;;;;;;;105744;1292;64882;-27
2021/12/26 09:34:33;;;;;;;17.80;11.50;;;;;;;;;;105815;1291;64849;-25
2021/12/26 09:37:01;;;;;;;17.60;11.00;;;;;;;;;;105801;1293;64997;-30
2021/12/26 09:39:28;;;;;;;19.00;11.60;;;;;;;;;;105822;1291;64726;-26
2021/12/26 09:41:54;;;;;;;19.90;12.60;;;;;;;;;;105827;1290;64817;-32
2021/12/26 09:44:22;;;;;;;16.60;11.30;;;;;;;;;;105644;1294;64952;-33
2021/12/26 09:46:49;;;;;;;18.70;12.40;;;;;;;;;;105607;1294;64733;-25
2021/12/26 09:49:16;;;;;;;19.40;12.10;;;;;;;;;;105792;1291;64749;-26
2021/12/26 09:51:44;;;;;;;19.20;12.40;;;;;;;;;;105861;1291;64846;-26
2021/12/26 09:54:11;;;;;;;19.10;11.10;;;;;;;;;;105861;1293;64875;-43
2021/12/26 09:56:39;;;;;;;18.10;12.20;;;;;;;;;;105676;1293;65927;-23
2021/12/26 09:59:07;;;;;;;21.00;13.70;;;;;;;;;;105614;1296;64958;-23
2021/12/26 10:01:38;;;;;;;24.80;14.80;;;;;;;;;;105840;1291;64827;-23
2021/12/26 10:04:15;;;;;;;27.10;15.20;;;;;;;;;;105891;1290;65376;-26
2021/12/26 10:06:42;;;;;;;24.90;14.70;;;;;;;;;;105809;1291;64773;-26
2021/12/26 10:09:10;;;;;;;26.60;14.90;;;;;;;;;;105834;1290;64725;-25
2021/12/26 10:11:40;;;;;;;26.90;15.30;;;;;;;;;;105673;1294;64807;-27
2021/12/26 10:14:08;;;;;;;22.40;13.90;;;;;;;;;;105818;1290;64793;-24
2021/12/26 10:16:38;;;;;;;24.30;14.60;;;;;;;;;;105807;1290;64855;-26
2021/12/26 10:19:06;;;;;;;25.80;14.50;;;;;;;;;;105820;1291;64843;-23
2021/12/26 10:21:35;;;;;;;24.20;15.00;;;;;;;;;;105833;1291;64923;-24
2021/12/26 10:24:04;;;;;;;21.10;13.60;;;;;;;;;;105663;1293;64880;-23
2021/12/26 10:26:37;;;;;;;24.80;14.10;;;;;;;;;;105815;1292;64850;-24
2021/12/26 10:29:05;;;;;;;27.60;14.40;;;;;;;;;;105831;1292;65951;-22
2021/12/26 10:31:33;;;;;;;20.90;13.20;;;;;;;;;;105856;1290;64880;-27
2021/12/26 10:34:00;;;;;;;22.70;13.40;;;;;;;;;;105857;1290;64741;-26
2021/12/26 10:36:27;;;;;;;23.50;13.80;;;;;;;;;;105665;1290;64833;-26
2021/12/26 10:39:08;;;;;;;19.70;13.20;;;;;;;;;;105649;1292;64781;-26
2021/12/26 10:41:40;;;;;;;21.10;13.50;;;;;;;;;;105851;1291;64851;-25
2021/12/26 10:44:07;;;;;;;20.60;13.00;;;;;;;;;;105408;1294;64867;-22
2021/12/26 10:46:35;;;;;;;23.10;13.30;;;;;;;;;;105613;1293;64793;-22
2021/12/26 10:49:21;;;;;;;21.20;14.00;;;;;;;;;;105825;1290;64869;-22
2021/12/26 10:51:47;;;;;;;22.80;13.50;;;;;;;;;;105815;1291;64848;-26
2021/12/26 10:54:15;;;;;;;20.60;14.00;;;;;;;;;;105856;1292;64853;-29
2021/12/26 10:57:00;;;;;;;28.40;13.40;;;;;;;;;;105814;1290;64943;-22
2021/12/26 10:59:27;;;;;;;24.20;13.60;;;;;;;;;;105645;1293;64898;-31
2021/12/26 11:01:56;;;;;;;20.70;14.00;;;;;;;;;;105813;1291;64759;-27
2021/12/26 11:04:26;;;;;;;18.50;12.80;;;;;;;;;;105845;1290;64818;-30
2021/12/26 11:07:01;;;;;;;21.50;13.90;;;;;;;;;;105830;1292;64767;-26
2021/12/26 11:09:28;;;;;;;24.80;13.90;;;;;;;;;;105840;1290;64853;-23
2021/12/26 11:12:09;;;;;;;19.80;12.40;;;;;;;;;;105674;1293;64922;-22
2021/12/26 11:14:55;;;;;;;21.50;13.10;;;;;;;;;;105668;1292;64787;-34
2021/12/26 11:17:29;;;;;;;19.60;12.60;;;;;;;;;;105812;1291;64707;-27
2021/12/26 11:19:56;;;;;;;22.00;13.50;;;;;;;;;;105842;1294;64841;-22
2021/12/26 11:22:24;;;;;;;20.10;13.60;;;;;;;;;;105835;1291;64734;-26
2021/12/26 11:24:57;;;;;;;20.40;12.50;;;;;;;;;;105841;1291;64943;-25
2021/12/26 11:27:25;;;;;;;19.40;12.40;;;;;;;;;;105671;1293;64749;-25
2021/12/26 11:29:53;;;;;;;21.60;13.40;;;;;;;;;;105878;1291;64899;-22
2021/12/26 11:32:22;;;;;;;21.50;13.10;;;;;;;;;;105840;1290;65456;-22
2021/12/26 11:34:49;;;;;;;22.40;12.70;;;;;;;;;;105808;1291;64859;-27
2021/12/26 11:37:16;;;;;;;20.50;12.60;;;;;;;;;;105816;1291;64733;-27
2021/12/26 11:39:44;;;;;;;22.20;12.80;;;;;;;;;;105805;1290;64794;-26
2021/12/26 11:42:23;;;;;;;19.60;12.20;;;;;;;;;;105619;1292;64800;-26
2021/12/26 11:45:07;;;;;;;18.10;12.30;;;;;;;;;;105672;1292;64763;-26
2021/12/26 11:47:39;;;;;;;;;;;;;;;;;;105671;1291;64850;-26
2021/12/26 11:50:14;;;;;;;19.00;11.80;;;;;;;;;;105803;1290;64803;-26
2021/12/26 11:53:00;;;;;;;17.00;11.90;;;;;;;;;;105803;1294;64845;-24
2021/12/26 11:55:45;;;;;;;19.50;12.50;;;;;;;;;;105845;1290;64868;-21
2021/12/26 11:58:28;;;;;;;17.10;11.40;;;;;;;;;;105820;1290;64851;-22
2021/12/26 12:00:57;;;;;;;20.60;12.00;;;;;;;;;;105834;1291;65645;-22
2021/12/26 12:03:26;;;;;;;20.80;12.00;;;;;;;;;;105592;1293;64837;-22
2021/12/26 12:05:54;;;;;;;18.00;11.40;;;;;;;;;;105613;1294;64877;-26
2021/12/26 12:08:27;;;;;;;19.80;12.30;;;;;;;;;;105836;1290;64838;-27
2021/12/26 12:10:57;;;;;;;21.20;12.50;;;;;;;;;;105848;1290;64818;-21
2021/12/26 12:13:27;;;;;;;20.20;13.00;;;;;;;;;;105849;1291;64913;-27
2021/12/26 12:15:55;;;;;;;20.90;12.00;;;;;;;;;;105865;1291;64990;-24
2021/12/26 12:18:40;;;;;;;20.70;12.60;;;;;;;;;;105814;1290;64802;-22
2021/12/26 12:21:10;;;;;;;18.80;12.50;;;;;;;;;;105862;1290;64860;-21
2021/12/26 12:23:55;;;;;;;19.30;11.80;;;;;;;;;;105846;1290;64975;-22
2021/12/26 12:26:52;;;;;;;18.10;11.90;;;;;;;;;;105799;1289;64848;-26
2021/12/26 12:29:28;;;;;;;17.40;11.70;;;;;;;;;;105715;1291;64828;-27
2021/12/26 12:32:08;;;;;;;16.10;11.90;;;;;;;;;;105669;1294;64838;-26
2021/12/26 12:34:51;;;;;;;18.40;11.80;;;;;;;;;;105826;1290;64774;-22
2021/12/26 12:37:51;;;;;;;17.60;11.20;;;;;;;;;;105647;1290;64933;-26
2021/12/26 12:40:30;;;;;;;17.30;12.10;;;;;;;;;;105403;1290;64978;-25
2021/12/26 12:43:07;;;;;;;17.90;12.00;;;;;;;;;;105809;1291;64890;-21
2021/12/26 12:45:53;;;;;;;18.60;11.80;;;;;;;;;;105825;1292;64821;-22
2021/12/26 12:48:27;;;;;;;21.40;11.70;;;;;;;;;;105665;1293;64885;-23
2021/12/26 12:50:56;;;;;;;18.50;10.80;;;;;;;;;;105820;1290;64732;-26
2021/12/26 12:53:40;;;;;;;18.60;11.10;;;;;;;;;;105790;1290;64812;-26
2021/12/26 12:56:08;;;;;;;17.10;10.90;;;;;;;;;;105852;1290;64815;-26
2021/12/26 12:58:36;;;;;;;17.50;12.10;;;;;;;;;;105850;1290;64843;-25
2021/12/26 13:01:05;;;;;;;18.90;11.10;;;;;;;;;;105672;1293;64839;-27
2021/12/26 13:03:36;;;;;;;18.70;10.90;;;;;;;;;;105847;1290;64842;-26
2021/12/26 13:06:08;;;;;;;17.00;10.30;;;;;;;;;;105795;1293;64912;-30
2021/12/26 13:08:35;;;;;;;16.50;10.60;;;;;;;;;;105822;1290;64887;-25
2021/12/26 13:11:06;;;;;;;17.80;10.80;;;;;;;;;;105636;1294;65329;-26
2021/12/26 13:13:38;;;;;;;18.20;11.70;;;;;;;;;;105816;1292;64930;-21
2021/12/26 13:16:05;;;;;;;19.30;11.10;;;;;;;;;;105831;1293;64838;-25
2021/12/26 13:18:33;;;;;;;18.10;10.50;;;;;;;;;;105811;1291;64875;-25
2021/12/26 13:21:02;;;;;;;15.30;10.30;;;;;;;;;;105530;1291;64923;-26
2021/12/26 13:23:30;;;;;;;19.50;11.50;;;;;;;;;;105840;1290;64917;-26
2021/12/26 13:26:01;;;;;;;16.30;10.70;;;;;;;;;;105824;1290;64726;-25
2021/12/26 13:28:29;;;;;;;16.30;11.20;;;;;;;;;;105665;1290;64729;-26
2021/12/26 13:30:58;;;;;;;17.50;10.90;;;;;;;;;;105790;1290;64868;-26
2021/12/26 13:33:25;;;;;;;16.60;10.30;;;;;;;;;;105628;1293;64926;-25
2021/12/26 13:35:52;;;;;;;16.60;10.70;;;;;;;;;;105837;1291;64800;-25
2021/12/26 13:38:20;;;;;;;17.40;11.10;;;;;;;;;;105856;1294;64851;-25
2021/12/26 13:40:50;;;;;;;16.20;11.00;;;;;;;;;;105837;1290;64686;-22
2021/12/26 13:43:29;;;;;;;15.70;12.10;;;;;;;;;;105828;1290;65896;-23
2021/12/26 13:45:58;;;;;;;16.70;12.20;;;;;;;;;;105841;1291;64871;-22
2021/12/26 13:48:25;;;;;;;18.80;12.10;;;;;;;;;;105826;1290;64836;-22
2021/12/26 13:50:53;;;;;;;18.00;12.20;;;;;;;;;;105833;1294;65006;-23
2021/12/26 13:53:20;;;;;;;17.60;12.80;;;;;;;;;;105826;1290;64854;-21
2021/12/26 13:55:52;;;;;;;19.20;13.30;;;;;;;;;;105839;1290;64868;-27
2021/12/26 13:58:20;;;;;;;18.00;12.80;;;;;;;;;;105831;1291;65014;-26
2021/12/26 14:00:48;;;;;;;17.20;12.00;;;;;;;;;;105860;1290;64772;-26
2021/12/26 14:03:16;;;;;;;18.70;12.80;;;;;;;;;;105813;1294;64891;-26
2021/12/26 14:05:43;;;;;;;18.60;13.00;;;;;;;;;;105841;1290;64850;-24
2021/12/26 14:08:13;;;;;;;17.90;13.30;;;;;;;;;;105812;1290;64875;-23
2021/12/26 14:10:40;;;;;;;17.10;12.60;;;;;;;;;;105806;1290;64697;-22
2021/12/26 14:13:09;;;;;;;17.30;13.40;;;;;;;;;;105819;1291;65643;-21
2021/12/26 14:15:44;;;;;;;17.20;12.70;;;;;;;;;;105859;1290;64915;-26
2021/12/26 14:18:23;;;;;;;16.20;11.60;;;;;;;;;;105848;1289;64813;-26
2021/12/26 14:20:58;;;;;;;19.10;12.60;;;;;;;;;;105842;1290;64864;-30
2021/12/26 14:23:30;;;;;;;16.10;12.20;;;;;;;;;;105838;1290;65004;-22